createdAt,value
2019-02-19T00:02:19.395Z,41.13
2019-02-19T00:04:50.631Z,33.40
2019-02-19T00:07:22.284Z,32.83
2019-02-19T00:09:53.823Z,31.80
2019-02-19T00:12:25.292Z,32.33
2019-02-19T00:14:56.761Z,31.60
2019-02-19T00:17:28.149Z,31.70
2019-02-19T00:20:00.751Z,28.93
2019-02-19T00:22:32.482Z,28.30
2019-02-19T00:25:03.728Z,28.57
2019-02-19T00:27:34.876Z,29.43
2019-02-19T00:30:06.422Z,28.13
2019-02-19T00:32:37.868Z,27.57
2019-02-19T00:35:09.370Z,25.00
2019-02-19T00:37:40.858Z,27.80
2019-02-19T00:40:11.963Z,27.80
2019-02-19T00:42:44.192Z,30.63
2019-02-19T00:45:16.902Z,24.27
2019-02-19T00:47:48.774Z,22.10
2019-02-19T00:50:20.019Z,26.27
2019-02-19T00:52:51.277Z,29.13
2019-02-19T00:55:22.667Z,30.17
2019-02-19T00:57:54.016Z,22.57
2019-02-19T01:00:25.426Z,23.57
2019-02-19T01:02:57.001Z,23.30
2019-02-19T01:05:28.044Z,27.23
2019-02-19T01:07:59.370Z,26.50
2019-02-19T01:10:30.768Z,27.93
2019-02-19T01:13:02.136Z,19.53
2019-02-19T01:15:33.452Z,26.83
2019-02-19T01:18:04.549Z,22.97
2019-02-19T01:20:35.607Z,21.70
2019-02-19T01:23:07.144Z,23.63
2019-02-19T01:25:38.373Z,24.03
2019-02-19T01:28:09.643Z,25.60
2019-02-19T01:30:40.918Z,23.20
2019-02-19T01:33:12.248Z,20.80
2019-02-19T01:35:43.660Z,20.13
2019-02-19T01:38:14.836Z,20.20
2019-02-19T01:40:46.955Z,19.50
2019-02-19T01:43:18.632Z,21.23
2019-02-19T01:45:49.791Z,20.07
2019-02-19T01:48:21.103Z,18.90
2019-02-19T01:50:52.825Z,15.97
2019-02-19T01:53:24.199Z,15.03
2019-02-19T01:55:55.472Z,18.00
2019-02-19T01:58:27.054Z,14.57
2019-02-19T02:00:59.731Z,16.17
2019-02-19T02:03:31.190Z,17.97
2019-02-19T02:06:02.713Z,18.53
2019-02-19T02:08:34.128Z,13.23
2019-02-19T02:11:05.228Z,11.57
2019-02-19T02:13:37.085Z,17.07
2019-02-19T02:16:09.967Z,15.53
2019-02-19T02:18:41.436Z,12.93
2019-02-19T02:21:12.464Z,15.73
2019-02-19T02:23:44.326Z,12.23
2019-02-19T02:26:16.127Z,12.87
2019-02-19T02:28:47.547Z,13.37
2019-02-19T02:31:18.909Z,13.07
2019-02-19T02:33:50.273Z,13.40
2019-02-19T02:36:21.633Z,13.93
2019-02-19T02:38:53.013Z,14.20
2019-02-19T02:41:24.732Z,11.07
2019-02-19T02:43:56.156Z,13.07
2019-02-19T02:46:27.433Z,12.90
2019-02-19T02:48:58.819Z,15.03
2019-02-19T02:51:30.198Z,11.07
2019-02-19T02:54:02.017Z,13.40
2019-02-19T02:56:33.284Z,16.20
2019-02-19T02:59:04.798Z,12.80
2019-02-19T03:01:36.484Z,12.33
2019-02-19T03:04:08.113Z,19.10
2019-02-19T03:07:04.822Z,17.43
2019-02-19T03:09:36.310Z,13.60
2019-02-19T03:12:09.268Z,13.47
2019-02-19T03:14:41.221Z,15.03
2019-02-19T03:17:14.043Z,13.27
2019-02-19T03:19:45.392Z,14.53
2019-02-19T03:22:16.968Z,13.50
2019-02-19T03:27:52.106Z,13.27
2019-02-19T03:30:23.012Z,14.80
2019-02-19T03:32:54.439Z,16.70
2019-02-19T03:35:25.944Z,18.90
2019-02-19T03:37:57.086Z,17.90
2019-02-19T03:40:28.265Z,18.33
2019-02-19T03:42:59.418Z,16.83
2019-02-19T03:45:30.589Z,15.37
2019-02-19T03:48:01.736Z,16.60
2019-02-19T03:50:32.646Z,18.23
2019-02-19T03:53:04.063Z,19.90
2019-02-19T03:55:35.320Z,19.87
2019-02-19T03:58:06.900Z,16.33
2019-02-19T04:00:38.564Z,16.03
2019-02-19T04:03:10.048Z,18.83
2019-02-19T04:05:41.712Z,17.33
2019-02-19T04:08:14.055Z,19.40
2019-02-19T04:10:45.302Z,16.47
2019-02-19T04:13:16.490Z,17.60
2019-02-19T04:15:47.647Z,19.57
2019-02-19T04:18:18.540Z,18.40
2019-02-19T04:20:49.963Z,17.00
2019-02-19T04:23:21.194Z,17.67
2019-02-19T04:25:52.347Z,18.27
2019-02-19T04:28:23.751Z,17.33
2019-02-19T04:30:54.720Z,18.57
2019-02-19T04:33:25.879Z,17.50
2019-02-19T04:35:57.043Z,19.33
2019-02-19T04:38:28.463Z,17.27
2019-02-19T04:40:59.604Z,17.23
2019-02-19T04:43:30.991Z,19.77
2019-02-19T04:46:02.151Z,20.80
2019-02-19T04:48:33.295Z,19.70
2019-02-19T04:51:04.283Z,20.00
2019-02-19T04:53:35.444Z,16.80
2019-02-19T04:56:06.599Z,16.43
2019-02-19T04:58:37.507Z,17.80
2019-02-19T05:01:08.778Z,18.80
2019-02-19T05:03:39.669Z,18.77
2019-02-19T05:06:10.846Z,19.70
2019-02-19T05:08:41.987Z,17.23
2019-02-19T05:11:13.419Z,22.30
2019-02-19T05:13:44.579Z,18.07
2019-02-19T05:16:15.742Z,16.43
2019-02-19T05:18:47.148Z,16.30
2019-02-19T05:21:18.322Z,17.30
2019-02-19T05:23:49.231Z,18.17
2019-02-19T05:26:20.391Z,21.03
2019-02-19T05:28:51.578Z,23.87
2019-02-19T05:31:24.327Z,20.67
2019-02-19T05:33:55.246Z,19.23
2019-02-19T05:36:26.417Z,14.90
2019-02-19T05:38:57.544Z,15.93
2019-02-19T05:41:28.734Z,17.10
2019-02-19T05:43:59.626Z,15.47
2019-02-19T05:46:31.030Z,18.57
2019-02-19T05:49:02.480Z,19.23
2019-02-19T05:51:33.403Z,17.10
2019-02-19T05:54:04.611Z,15.27
2019-02-19T05:56:35.844Z,14.77
2019-02-19T05:59:07.243Z,18.07
2019-02-19T06:01:38.868Z,16.13
2019-02-19T06:04:10.035Z,19.33
2019-02-19T06:06:41.183Z,17.57
2019-02-19T06:09:12.247Z,17.00
2019-02-19T06:11:43.408Z,18.20
2019-02-19T06:14:14.551Z,18.33
2019-02-19T06:16:45.808Z,20.90
2019-02-19T06:19:17.915Z,24.53
2019-02-19T06:21:49.400Z,22.33
2019-02-19T06:24:20.835Z,18.97
2019-02-19T06:26:52.117Z,19.80
2019-02-19T06:29:23.575Z,17.87
2019-02-19T06:31:54.787Z,16.60
2019-02-19T06:34:26.208Z,16.47
2019-02-19T06:36:57.387Z,18.33
2019-02-19T06:39:28.533Z,17.27
2019-02-19T06:41:59.685Z,17.70
2019-02-19T06:44:30.847Z,13.87
2019-02-19T06:47:06.840Z,19.53
2019-02-19T06:49:34.622Z,22.10
2019-02-19T06:52:05.799Z,15.90
2019-02-19T06:54:37.185Z,19.50
2019-02-19T06:57:08.804Z,15.07
2019-02-19T06:59:42.699Z,15.73
2019-02-19T07:02:26.675Z,12.93
2019-02-19T07:04:59.279Z,14.80
2019-02-19T07:07:30.683Z,13.73
2019-02-19T07:10:04.212Z,16.40
2019-02-19T07:12:35.376Z,18.40
2019-02-19T07:15:06.679Z,17.73
2019-02-19T07:17:38.807Z,12.50
2019-02-19T07:20:10.097Z,16.07
2019-02-19T07:22:41.246Z,19.03
2019-02-19T07:25:12.534Z,13.83
2019-02-19T07:27:44.211Z,14.87
2019-02-19T07:30:15.485Z,17.17
2019-02-19T07:32:46.659Z,15.87
2019-02-19T07:35:18.056Z,16.63
2019-02-19T07:37:49.231Z,13.30
2019-02-19T07:40:20.411Z,11.63
2019-02-19T07:42:51.332Z,16.20
2019-02-19T07:45:22.815Z,11.30
2019-02-19T07:47:53.979Z,15.07
2019-02-19T07:50:25.122Z,13.63
2019-02-19T07:52:56.536Z,12.73
2019-02-19T07:55:27.670Z,13.73
2019-02-19T07:57:58.583Z,11.47
2019-02-19T08:00:30.228Z,12.83
2019-02-19T08:03:01.376Z,11.97
2019-02-19T08:05:32.511Z,12.33
2019-02-19T08:08:03.428Z,12.53
2019-02-19T08:10:34.811Z,13.30
2019-02-19T08:13:05.959Z,13.47
2019-02-19T08:15:37.127Z,11.57
2019-02-19T08:18:08.291Z,9.33
2019-02-19T08:20:39.703Z,15.10
2019-02-19T08:23:10.899Z,10.30
2019-02-19T08:25:42.023Z,15.60
2019-02-19T08:28:13.167Z,13.87
2019-02-19T08:30:44.299Z,15.43
2019-02-19T08:33:16.015Z,13.83
2019-02-19T08:35:47.431Z,12.30
2019-02-19T08:38:18.567Z,10.37
2019-02-19T08:40:49.711Z,12.77
2019-02-19T08:43:20.951Z,12.53
2019-02-19T08:45:52.088Z,14.03
2019-02-19T08:48:23.237Z,14.00
2019-02-19T08:50:54.388Z,16.80
2019-02-19T08:53:25.535Z,14.87
2019-02-19T08:55:57.907Z,17.60
2019-02-19T08:58:29.067Z,12.37
2019-02-19T09:01:00.436Z,14.87
2019-02-19T09:03:31.959Z,15.03
2019-02-19T09:06:02.887Z,13.30
2019-02-19T09:08:34.448Z,14.53
2019-02-19T09:11:05.727Z,15.60
2019-02-19T09:13:36.635Z,18.80
2019-02-19T09:16:09.635Z,11.63
2019-02-19T09:18:40.809Z,14.23
2019-02-19T09:21:11.947Z,15.43
2019-02-19T09:23:42.854Z,17.87
2019-02-19T09:26:13.902Z,17.13
2019-02-19T09:28:44.818Z,15.17
2019-02-19T09:31:15.765Z,16.60
2019-02-19T09:33:46.899Z,16.30
2019-02-19T09:36:18.309Z,17.43
2019-02-19T09:38:49.446Z,17.43
2019-02-19T09:41:20.604Z,15.07
2019-02-19T09:43:51.747Z,22.07
2019-02-19T09:46:23.167Z,19.03
2019-02-19T09:48:54.326Z,23.10
2019-02-19T09:51:25.326Z,23.27
2019-02-19T09:54:01.137Z,18.43
2019-02-19T09:56:32.803Z,18.93
2019-02-19T09:59:04.080Z,23.77
2019-02-19T10:01:35.326Z,18.93
2019-02-19T10:04:06.239Z,15.77
2019-02-19T10:06:37.619Z,16.83
2019-02-19T10:09:09.975Z,16.30
2019-02-19T10:11:41.136Z,18.47
2019-02-19T10:14:12.271Z,16.13
2019-02-19T10:16:43.171Z,24.27
2019-02-19T10:19:14.091Z,22.97
2019-02-19T10:21:45.788Z,22.70
2019-02-19T10:24:17.079Z,18.97
2019-02-19T10:26:49.633Z,16.90
2019-02-19T10:29:20.951Z,17.77
2019-02-19T10:31:52.379Z,25.70
2019-02-19T10:34:23.527Z,18.30
2019-02-19T10:36:54.675Z,16.87
2019-02-19T10:39:25.591Z,16.07
2019-02-19T10:41:56.739Z,13.63
2019-02-19T10:44:27.642Z,30.27
2019-02-19T10:46:58.602Z,17.63
2019-02-19T10:49:29.815Z,22.07
2019-02-19T10:52:01.040Z,17.53
2019-02-19T10:54:32.108Z,13.70
2019-02-19T10:57:03.011Z,14.87
2019-02-19T10:59:34.263Z,14.67
2019-02-19T11:02:06.260Z,15.93
2019-02-19T11:04:37.696Z,15.00
2019-02-19T11:07:08.827Z,15.27
2019-02-19T11:09:40.257Z,15.17
2019-02-19T11:12:11.443Z,13.93
2019-02-19T11:14:42.640Z,11.10
2019-02-19T11:17:13.603Z,11.87
2019-02-19T11:19:44.947Z,15.00
2019-02-19T11:22:16.342Z,13.20
2019-02-19T11:24:47.494Z,9.93
2019-02-19T11:27:18.659Z,8.33
2019-02-19T11:29:50.048Z,12.57
2019-02-19T11:32:22.163Z,9.73
2019-02-19T11:34:53.664Z,16.40
2019-02-19T11:37:24.567Z,11.20
2019-02-19T11:39:55.712Z,10.10
2019-02-19T11:42:26.987Z,17.43
2019-02-19T11:44:58.276Z,10.47
2019-02-19T11:47:29.254Z,16.03
2019-02-19T11:50:00.435Z,11.37
2019-02-19T11:52:31.435Z,13.00
2019-02-19T11:55:02.619Z,10.73
2019-02-19T11:57:33.592Z,10.53
2019-02-19T12:00:06.078Z,10.67
2019-02-19T12:02:37.013Z,10.37
2019-02-19T12:05:08.350Z,10.27
2019-02-19T12:07:39.493Z,11.07
2019-02-19T12:10:12.038Z,8.93
2019-02-19T12:12:43.607Z,10.17
2019-02-19T12:15:14.607Z,10.43
2019-02-19T12:17:45.767Z,6.97
2019-02-19T12:20:16.926Z,9.17
2019-02-19T12:22:48.348Z,11.97
2019-02-19T12:25:19.403Z,11.37
2019-02-19T12:27:50.307Z,9.63
2019-02-19T12:30:21.522Z,13.37
2019-02-19T12:32:52.930Z,13.50
2019-02-19T12:35:24.144Z,8.93
2019-02-19T12:37:55.683Z,7.53
2019-02-19T12:40:26.927Z,11.90
2019-02-19T12:42:58.170Z,9.47
2019-02-19T12:45:29.299Z,9.10
2019-02-19T12:48:00.707Z,12.73
2019-02-19T12:50:32.300Z,11.23
2019-02-19T12:53:03.206Z,12.10
2019-02-19T12:55:35.560Z,9.50
2019-02-19T12:58:06.732Z,10.33
2019-02-19T13:00:37.917Z,9.23
2019-02-19T13:03:09.154Z,12.43
2019-02-19T13:05:40.320Z,11.53
2019-02-19T13:08:11.307Z,12.10
2019-02-19T13:10:42.225Z,10.70
2019-02-19T13:13:15.126Z,7.73
2019-02-19T13:15:46.690Z,11.27
2019-02-19T13:18:17.848Z,6.00
2019-02-19T13:20:54.543Z,8.63
2019-02-19T13:23:25.715Z,11.77
2019-02-19T13:25:56.608Z,6.43
2019-02-19T13:28:27.743Z,10.33
2019-02-19T13:30:58.634Z,10.90
2019-02-19T13:33:29.782Z,12.23
2019-02-19T13:36:00.915Z,9.50
2019-02-19T13:38:32.331Z,13.20
2019-02-19T13:41:03.234Z,8.70
2019-02-19T13:43:34.660Z,11.13
2019-02-19T13:46:05.790Z,8.77
2019-02-19T13:48:37.182Z,9.50
2019-02-19T13:51:08.330Z,10.30
2019-02-19T13:53:45.924Z,11.37
2019-02-19T13:56:17.050Z,11.27
2019-02-19T13:58:47.947Z,9.97
2019-02-19T14:01:19.188Z,8.30
2019-02-19T14:03:50.583Z,13.83
2019-02-19T14:06:21.963Z,8.10
2019-02-19T14:08:53.367Z,9.83
2019-02-19T14:11:25.003Z,8.73
2019-02-19T14:14:22.087Z,3.23
2019-02-19T14:16:57.268Z,7.20
2019-02-19T14:19:44.099Z,6.03
2019-02-19T14:22:46.488Z,10.30
2019-02-19T14:25:31.435Z,4.80
2019-02-19T14:28:20.873Z,9.70
2019-02-19T14:31:20.512Z,6.77
2019-02-19T14:34:10.176Z,5.93
2019-02-19T14:37:00.627Z,8.17
2019-02-19T14:39:49.299Z,3.80
2019-02-19T14:42:36.299Z,5.50
2019-02-19T14:45:25.766Z,5.73
2019-02-19T14:48:14.486Z,6.03
2019-02-19T14:51:07.539Z,10.23
2019-02-19T14:53:45.573Z,7.57
2019-02-19T14:56:56.379Z,6.30
2019-02-19T14:59:40.893Z,7.23
2019-02-19T15:02:30.093Z,7.07
2019-02-19T15:05:35.568Z,6.77
2019-02-19T15:08:15.438Z,6.53
2019-02-19T15:11:06.000Z,6.47
2019-02-19T15:13:59.251Z,7.43
2019-02-19T15:16:48.859Z,8.53
2019-02-19T15:19:39.416Z,9.67
2019-02-19T15:22:35.752Z,7.00
2019-02-19T15:25:24.743Z,4.93
2019-02-19T15:28:13.087Z,8.83
2019-02-19T15:31:01.905Z,5.63
2019-02-19T15:34:01.139Z,12.37
2019-02-19T15:37:06.761Z,2.87
2019-02-19T15:39:55.915Z,7.80
2019-02-19T15:42:46.013Z,7.07
2019-02-19T15:45:35.895Z,5.43
2019-02-19T15:48:22.827Z,7.80
2019-02-19T15:51:11.431Z,5.77
2019-02-19T15:54:09.762Z,9.27
2019-02-19T15:57:12.146Z,7.53
2019-02-19T16:00:14.436Z,11.57
2019-02-19T16:02:50.516Z,9.27
2019-02-19T16:05:50.060Z,9.67
2019-02-19T16:08:27.095Z,8.60
2019-02-19T16:11:05.731Z,14.43
2019-02-19T16:14:04.843Z,6.67
2019-02-19T16:17:12.898Z,7.67
2019-02-19T16:19:56.913Z,10.10
2019-02-19T16:22:45.836Z,7.43
2019-02-19T16:25:51.184Z,6.30
2019-02-19T16:28:36.851Z,10.23
2019-02-19T16:31:17.718Z,6.70
2019-02-19T16:34:04.840Z,8.57
2019-02-19T16:36:46.954Z,6.23
2019-02-19T16:39:29.878Z,4.60
2019-02-19T16:42:21.208Z,8.33
2019-02-19T16:45:03.855Z,20.93
2019-02-19T16:47:45.285Z,8.20
2019-02-19T16:50:38.561Z,6.97
2019-02-19T16:53:27.727Z,7.50
2019-02-19T16:56:16.965Z,8.77
2019-02-19T16:59:07.707Z,4.10
2019-02-19T17:01:55.863Z,7.30
2019-02-19T17:04:43.169Z,10.60
2019-02-19T17:07:23.925Z,6.07
2019-02-19T17:10:03.283Z,3.97
2019-02-19T17:12:53.318Z,8.15
2019-02-19T17:15:43.743Z,8.30
2019-02-19T17:18:25.444Z,4.93
2019-02-19T17:21:13.275Z,8.73
2019-02-19T17:23:50.052Z,7.47
2019-02-19T17:26:43.079Z,9.30
2019-02-19T17:29:36.050Z,5.53
2019-02-19T17:32:15.668Z,9.53
2019-02-19T17:35:03.982Z,7.63
2019-02-19T17:37:54.127Z,16.73
2019-02-19T17:40:42.608Z,10.70
2019-02-19T17:43:38.960Z,6.73
2019-02-19T17:46:35.283Z,5.17
2019-02-19T17:49:25.551Z,9.37
2019-02-19T17:52:09.107Z,10.60
2019-02-19T17:54:52.908Z,6.20
2019-02-19T17:57:46.943Z,6.63
2019-02-19T18:00:32.740Z,6.67
2019-02-19T18:03:25.960Z,4.80
2019-02-19T18:06:15.668Z,6.07
2019-02-19T18:09:05.900Z,8.70
2019-02-19T18:11:53.403Z,12.57
2019-02-19T18:14:42.070Z,8.60
2019-02-19T18:17:29.946Z,7.90
2019-02-19T18:20:01.035Z,13.87
2019-02-19T18:22:32.103Z,9.23
2019-02-19T18:25:03.497Z,7.67
2019-02-19T18:27:34.734Z,8.87
2019-02-19T18:30:06.270Z,8.43
2019-02-19T18:32:37.695Z,8.67
2019-02-19T18:35:08.843Z,6.90
2019-02-19T18:37:39.759Z,8.23
2019-02-19T18:40:11.055Z,7.30
2019-02-19T18:42:42.339Z,10.93
2019-02-19T18:45:13.824Z,5.07
2019-02-19T18:47:45.725Z,5.13
2019-02-19T18:50:16.931Z,6.43
2019-02-19T18:52:47.976Z,7.43
2019-02-19T18:55:19.132Z,6.37
2019-02-19T18:57:50.307Z,10.37
2019-02-19T19:00:21.480Z,11.73
2019-02-19T19:02:52.939Z,10.47
2019-02-19T19:05:24.375Z,11.57
2019-02-19T19:07:55.569Z,9.43
2019-02-19T19:10:26.752Z,13.80
2019-02-19T19:12:57.931Z,11.50
2019-02-19T19:15:29.181Z,12.57
2019-02-19T19:18:03.255Z,11.27
2019-02-19T19:20:34.937Z,10.93
2019-02-19T19:23:06.152Z,12.37
2019-02-19T19:25:37.367Z,22.33
2019-02-19T19:28:09.504Z,12.00
2019-02-19T19:30:40.695Z,12.10
2019-02-19T19:33:13.163Z,14.97
2019-02-19T19:35:44.307Z,6.83
2019-02-19T19:38:15.217Z,11.27
2019-02-19T19:40:46.348Z,12.90
2019-02-19T19:43:17.596Z,10.43
2019-02-19T19:45:49.119Z,13.90
2019-02-19T19:48:20.027Z,16.30
2019-02-19T19:50:51.260Z,14.43
2019-02-19T19:53:22.472Z,11.73
2019-02-19T19:55:54.740Z,9.47
2019-02-19T19:58:25.896Z,11.10
2019-02-19T20:00:57.043Z,12.43
2019-02-19T20:03:28.347Z,14.47
2019-02-19T20:05:59.499Z,8.07
2019-02-19T20:08:30.424Z,11.60
2019-02-19T20:11:01.596Z,16.07
2019-02-19T20:13:33.007Z,9.33
2019-02-19T20:16:04.520Z,15.00
2019-02-19T20:18:39.125Z,14.33
2019-02-19T20:21:08.303Z,14.63
2019-02-19T20:23:39.728Z,18.60
2019-02-19T20:26:10.923Z,15.03
2019-02-19T20:28:42.143Z,14.70
2019-02-19T20:31:13.444Z,12.63
2019-02-19T20:33:44.669Z,15.00
2019-02-19T20:36:15.847Z,13.67
2019-02-19T20:38:47.265Z,13.00
2019-02-19T20:41:20.929Z,11.57
2019-02-19T20:43:51.845Z,11.57
2019-02-19T20:46:23.247Z,12.03
2019-02-19T20:48:55.619Z,13.37
2019-02-19T20:51:36.113Z,13.43
2019-02-19T20:54:01.164Z,16.13
2019-02-19T20:56:32.170Z,16.23
2019-02-19T20:59:03.216Z,14.10
2019-02-19T21:01:34.635Z,15.23
2019-02-19T21:04:05.563Z,11.33
2019-02-19T21:06:36.467Z,13.60
2019-02-19T21:09:08.156Z,9.57
2019-02-19T21:11:40.439Z,11.73
2019-02-19T21:14:11.607Z,18.30
2019-02-19T21:16:42.755Z,14.03
2019-02-19T21:19:13.705Z,9.67
2019-02-19T21:21:45.282Z,14.47
2019-02-19T21:24:16.619Z,12.10
2019-02-19T21:26:48.030Z,11.87
2019-02-19T21:29:19.200Z,17.67
2019-02-19T21:31:50.352Z,10.87
2019-02-19T21:34:22.008Z,14.17
2019-02-19T21:36:53.062Z,12.23
2019-02-19T21:39:24.223Z,14.33
2019-02-19T21:41:55.443Z,21.80
2019-02-19T21:44:27.823Z,15.00
2019-02-19T21:46:58.730Z,12.30
2019-02-19T21:49:29.970Z,15.37
2019-02-19T21:52:00.936Z,16.30
2019-02-19T21:54:33.055Z,18.43
2019-02-19T21:57:04.267Z,19.80
2019-02-19T21:59:35.831Z,19.93
2019-02-19T22:02:07.080Z,21.93
2019-02-19T22:04:38.279Z,12.67
2019-02-19T22:07:09.436Z,14.67
2019-02-19T22:09:40.703Z,10.80
2019-02-19T22:12:15.325Z,13.20
2019-02-19T22:14:46.534Z,17.60
2019-02-19T22:17:17.563Z,17.70
2019-02-19T22:19:48.727Z,19.90
2019-02-19T22:22:22.227Z,24.90
2019-02-19T22:24:55.175Z,29.73
2019-02-19T22:27:26.350Z,19.20
2019-02-19T22:29:57.274Z,24.87
2019-02-19T22:32:28.407Z,20.57
2019-02-19T22:34:59.327Z,14.37
2019-02-19T22:37:30.602Z,18.87
2019-02-19T22:40:02.008Z,14.80
2019-02-19T22:42:33.152Z,15.20
2019-02-19T22:45:05.547Z,17.67
2019-02-19T22:47:36.700Z,22.70
2019-02-19T22:50:07.731Z,23.40
2019-02-19T22:52:39.208Z,16.93
2019-02-19T22:55:26.255Z,12.60
2019-02-19T22:57:57.230Z,14.77
2019-02-19T23:00:49.607Z,13.23
2019-02-19T23:03:26.004Z,15.13
2019-02-19T23:05:56.909Z,19.47
2019-02-19T23:08:28.285Z,14.97
2019-02-19T23:10:59.197Z,18.13
2019-02-19T23:13:30.091Z,12.53
2019-02-19T23:16:01.008Z,21.63
2019-02-19T23:18:31.907Z,18.20
2019-02-19T23:21:02.916Z,15.10
2019-02-19T23:23:34.324Z,11.60
2019-02-19T23:26:05.708Z,19.87
2019-02-19T23:28:36.611Z,13.97
2019-02-19T23:31:08.027Z,13.60
2019-02-19T23:33:39.206Z,17.03
2019-02-19T23:36:18.021Z,8.83
2019-02-19T23:38:48.995Z,12.93
2019-02-19T23:41:19.994Z,20.00
2019-02-19T23:43:50.899Z,14.63
2019-02-19T23:46:23.118Z,16.30
2019-02-19T23:48:54.268Z,13.93
2019-02-19T23:51:25.439Z,16.23
2019-02-19T23:53:56.330Z,14.63
2019-02-19T23:56:27.507Z,15.83
2019-02-19T23:58:58.923Z,15.80
